sensor_id;sensor_type;location;lat;lon;timestamp;temperature;humidity
19168;DHT22;9716;53.114;18.040;2023-02-21T00:01:46;8.10;99.90
19168;DHT22;9716;53.114;18.040;2023-02-21T00:04:32;8.10;99.90
19168;DHT22;9716;53.114;18.040;2023-02-21T00:07:18;8.10;99.90
19168;DHT22;9716;53.114;18.040;2023-02-21T00:10:06;8.00;99.90
19168;DHT22;9716;53.114;18.040;2023-02-21T00:12:53;8.00;99.90
19168;DHT22;9716;53.114;18.040;2023-02-21T00:15:40;7.90;99.90
19168;DHT22;9716;53.114;18.040;2023-02-21T00:18:27;7.90;99.90
19168;DHT22;9716;53.114;18.040;2023-02-21T00:21:12;7.90;99.90
19168;DHT22;9716;53.114;18.040;2023-02-21T00:23:58;7.90;99.90
19168;DHT22;9716;53.114;18.040;2023-02-21T00:26:44;7.90;99.90
19168;DHT22;9716;53.114;18.040;2023-02-21T00:29:30;7.80;99.90
19168;DHT22;9716;53.114;18.040;2023-02-21T00:32:17;7.80;99.90
19168;DHT22;9716;53.114;18.040;2023-02-21T00:35:04;7.80;99.90
19168;DHT22;9716;53.114;18.040;2023-02-21T00:37:50;7.80;99.90
19168;DHT22;9716;53.114;18.040;2023-02-21T00:40:36;7.80;99.90
19168;DHT22;9716;53.114;18.040;2023-02-21T00:43:27;7.80;99.90
19168;DHT22;9716;53.114;18.040;2023-02-21T00:46:14;7.80;99.90
19168;DHT22;9716;53.114;18.040;2023-02-21T00:49:01;7.80;99.90
19168;DHT22;9716;53.114;18.040;2023-02-21T00:51:48;7.80;99.90
19168;DHT22;9716;53.114;18.040;2023-02-21T00:54:35;7.80;99.90
19168;DHT22;9716;53.114;18.040;2023-02-21T00:57:21;7.80;99.90
19168;DHT22;9716;53.114;18.040;2023-02-21T01:00:13;7.80;99.90
19168;DHT22;9716;53.114;18.040;2023-02-21T01:02:59;7.80;99.90
19168;DHT22;9716;53.114;18.040;2023-02-21T01:05:46;7.70;99.90
19168;DHT22;9716;53.114;18.040;2023-02-21T01:08:33;7.70;99.90
19168;DHT22;9716;53.114;18.040;2023-02-21T01:11:20;7.80;99.90
19168;DHT22;9716;53.114;18.040;2023-02-21T01:14:07;7.80;99.90
19168;DHT22;9716;53.114;18.040;2023-02-21T01:16:54;7.80;99.90
19168;DHT22;9716;53.114;18.040;2023-02-21T01:19:40;7.80;99.90
19168;DHT22;9716;53.114;18.040;2023-02-21T01:22:28;7.80;99.90
19168;DHT22;9716;53.114;18.040;2023-02-21T01:25:15;7.80;99.90
19168;DHT22;9716;53.114;18.040;2023-02-21T01:28:01;7.80;99.90
19168;DHT22;9716;53.114;18.040;2023-02-21T01:30:46;7.80;99.90
19168;DHT22;9716;53.114;18.040;2023-02-21T01:33:35;7.80;99.90
19168;DHT22;9716;53.114;18.040;2023-02-21T01:36:21;7.70;99.90
19168;DHT22;9716;53.114;18.040;2023-02-21T01:39:09;7.70;99.90
19168;DHT22;9716;53.114;18.040;2023-02-21T01:41:55;7.70;99.90
19168;DHT22;9716;53.114;18.040;2023-02-21T01:44:42;7.70;99.90
19168;DHT22;9716;53.114;18.040;2023-02-21T01:47:29;7.70;99.90
19168;DHT22;9716;53.114;18.040;2023-02-21T01:50:19;7.80;99.90
19168;DHT22;9716;53.114;18.040;2023-02-21T01:53:10;7.80;99.90
19168;DHT22;9716;53.114;18.040;2023-02-21T01:55:59;7.80;99.90
19168;DHT22;9716;53.114;18.040;2023-02-21T01:58:48;7.80;99.90
19168;DHT22;9716;53.114;18.040;2023-02-21T02:01:38;7.90;99.90
19168;DHT22;9716;53.114;18.040;2023-02-21T02:04:25;7.90;99.90
19168;DHT22;9716;53.114;18.040;2023-02-21T02:07:11;8.00;99.90
19168;DHT22;9716;53.114;18.040;2023-02-21T02:09:57;8.00;99.90
19168;DHT22;9716;53.114;18.040;2023-02-21T02:15:55;7.90;99.90
19168;DHT22;9716;53.114;18.040;2023-02-21T02:19:10;7.90;99.90
19168;DHT22;9716;53.114;18.040;2023-02-21T02:22:18;7.90;99.90
19168;DHT22;9716;53.114;18.040;2023-02-21T02:24:57;7.90;99.90
19168;DHT22;9716;53.114;18.040;2023-02-21T02:27:42;7.90;99.90
19168;DHT22;9716;53.114;18.040;2023-02-21T02:30:29;7.90;99.90
19168;DHT22;9716;53.114;18.040;2023-02-21T02:33:41;7.90;99.90
19168;DHT22;9716;53.114;18.040;2023-02-21T02:36:17;7.80;99.90
19168;DHT22;9716;53.114;18.040;2023-02-21T02:38:55;7.90;99.90
19168;DHT22;9716;53.114;18.040;2023-02-21T02:41:31;7.80;99.90
19168;DHT22;9716;53.114;18.040;2023-02-21T02:44:05;7.90;99.90
19168;DHT22;9716;53.114;18.040;2023-02-21T02:46:37;7.90;99.90
19168;DHT22;9716;53.114;18.040;2023-02-21T02:49:13;7.90;99.90
19168;DHT22;9716;53.114;18.040;2023-02-21T02:51:43;7.90;99.90
19168;DHT22;9716;53.114;18.040;2023-02-21T02:54:11;7.90;99.90
19168;DHT22;9716;53.114;18.040;2023-02-21T02:56:40;7.90;99.90
19168;DHT22;9716;53.114;18.040;2023-02-21T02:59:10;7.90;99.90
19168;DHT22;9716;53.114;18.040;2023-02-21T03:01:58;7.90;99.90
19168;DHT22;9716;53.114;18.040;2023-02-21T03:04:44;7.90;99.90
19168;DHT22;9716;53.114;18.040;2023-02-21T03:07:21;7.90;99.90
19168;DHT22;9716;53.114;18.040;2023-02-21T03:10:03;7.80;99.90
19168;DHT22;9716;53.114;18.040;2023-02-21T03:12:36;7.80;99.90
19168;DHT22;9716;53.114;18.040;2023-02-21T03:15:10;7.70;99.90
19168;DHT22;9716;53.114;18.040;2023-02-21T03:17:42;7.60;99.90
19168;DHT22;9716;53.114;18.040;2023-02-21T03:20:13;7.60;99.90
19168;DHT22;9716;53.114;18.040;2023-02-21T03:22:45;7.60;99.90
19168;DHT22;9716;53.114;18.040;2023-02-21T03:25:14;7.50;99.90
19168;DHT22;9716;53.114;18.040;2023-02-21T03:27:43;7.40;99.90
19168;DHT22;9716;53.114;18.040;2023-02-21T03:30:13;7.40;99.90
19168;DHT22;9716;53.114;18.040;2023-02-21T03:32:44;7.40;99.90
19168;DHT22;9716;53.114;18.040;2023-02-21T03:35:15;7.30;99.90
19168;DHT22;9716;53.114;18.040;2023-02-21T03:37:46;7.30;99.90
19168;DHT22;9716;53.114;18.040;2023-02-21T03:40:19;7.30;99.90
19168;DHT22;9716;53.114;18.040;2023-02-21T03:42:49;7.30;99.90
19168;DHT22;9716;53.114;18.040;2023-02-21T03:45:18;7.20;99.90
19168;DHT22;9716;53.114;18.040;2023-02-21T03:47:46;7.20;99.90
19168;DHT22;9716;53.114;18.040;2023-02-21T03:50:15;7.10;99.90
19168;DHT22;9716;53.114;18.040;2023-02-21T03:52:45;7.10;99.90
19168;DHT22;9716;53.114;18.040;2023-02-21T03:55:14;7.10;99.90
19168;DHT22;9716;53.114;18.040;2023-02-21T03:57:42;7.10;99.90
19168;DHT22;9716;53.114;18.040;2023-02-21T04:00:12;7.00;99.90
19168;DHT22;9716;53.114;18.040;2023-02-21T04:02:41;7.00;99.90
19168;DHT22;9716;53.114;18.040;2023-02-21T04:05:10;7.00;99.90
19168;DHT22;9716;53.114;18.040;2023-02-21T04:07:39;7.00;99.90
19168;DHT22;9716;53.114;18.040;2023-02-21T04:10:09;7.00;99.90
19168;DHT22;9716;53.114;18.040;2023-02-21T04:12:37;7.00;99.90
19168;DHT22;9716;53.114;18.040;2023-02-21T04:15:06;7.00;99.90
19168;DHT22;9716;53.114;18.040;2023-02-21T04:17:35;7.10;99.90
19168;DHT22;9716;53.114;18.040;2023-02-21T04:20:04;7.10;99.90
19168;DHT22;9716;53.114;18.040;2023-02-21T04:22:32;7.10;99.90
19168;DHT22;9716;53.114;18.040;2023-02-21T04:25:01;7.10;99.90
19168;DHT22;9716;53.114;18.040;2023-02-21T04:27:30;7.20;99.90
19168;DHT22;9716;53.114;18.040;2023-02-21T04:30:01;7.20;99.90
19168;DHT22;9716;53.114;18.040;2023-02-21T04:32:29;7.20;99.90
19168;DHT22;9716;53.114;18.040;2023-02-21T04:34:58;7.30;99.90
19168;DHT22;9716;53.114;18.040;2023-02-21T04:37:26;7.30;99.90
19168;DHT22;9716;53.114;18.040;2023-02-21T04:39:55;7.30;99.90
19168;DHT22;9716;53.114;18.040;2023-02-21T04:42:23;7.30;99.90
19168;DHT22;9716;53.114;18.040;2023-02-21T04:44:53;7.40;99.90
19168;DHT22;9716;53.114;18.040;2023-02-21T04:47:26;7.40;99.90
19168;DHT22;9716;53.114;18.040;2023-02-21T04:49:55;7.40;99.90
19168;DHT22;9716;53.114;18.040;2023-02-21T04:52:25;7.40;99.90
19168;DHT22;9716;53.114;18.040;2023-02-21T04:54:53;7.40;99.90
19168;DHT22;9716;53.114;18.040;2023-02-21T04:57:22;7.50;99.90
19168;DHT22;9716;53.114;18.040;2023-02-21T04:59:56;7.50;99.90
19168;DHT22;9716;53.114;18.040;2023-02-21T05:02:26;7.50;99.90
19168;DHT22;9716;53.114;18.040;2023-02-21T05:04:55;7.50;99.90
19168;DHT22;9716;53.114;18.040;2023-02-21T05:07:23;7.60;99.90
19168;DHT22;9716;53.114;18.040;2023-02-21T05:09:52;7.50;99.90
19168;DHT22;9716;53.114;18.040;2023-02-21T05:12:20;7.60;99.90
19168;DHT22;9716;53.114;18.040;2023-02-21T05:14:49;7.60;99.90
19168;DHT22;9716;53.114;18.040;2023-02-21T05:17:18;7.60;99.90
19168;DHT22;9716;53.114;18.040;2023-02-21T05:19:47;7.60;99.90
19168;DHT22;9716;53.114;18.040;2023-02-21T05:22:15;7.60;99.90
19168;DHT22;9716;53.114;18.040;2023-02-21T05:24:46;7.60;99.90
19168;DHT22;9716;53.114;18.040;2023-02-21T05:27:16;7.60;99.90
19168;DHT22;9716;53.114;18.040;2023-02-21T05:29:45;7.50;99.90
19168;DHT22;9716;53.114;18.040;2023-02-21T05:32:14;7.50;99.90
19168;DHT22;9716;53.114;18.040;2023-02-21T05:34:45;7.40;99.90
19168;DHT22;9716;53.114;18.040;2023-02-21T05:37:14;7.40;99.90
19168;DHT22;9716;53.114;18.040;2023-02-21T05:39:43;7.40;99.90
19168;DHT22;9716;53.114;18.040;2023-02-21T05:42:11;7.30;99.90
19168;DHT22;9716;53.114;18.040;2023-02-21T05:44:40;7.30;99.90
19168;DHT22;9716;53.114;18.040;2023-02-21T05:47:11;7.30;99.90
19168;DHT22;9716;53.114;18.040;2023-02-21T05:49:40;7.30;99.90
19168;DHT22;9716;53.114;18.040;2023-02-21T05:52:12;7.20;99.90
19168;DHT22;9716;53.114;18.040;2023-02-21T05:54:40;7.20;99.90
19168;DHT22;9716;53.114;18.040;2023-02-21T05:57:09;7.20;99.90
19168;DHT22;9716;53.114;18.040;2023-02-21T05:59:38;7.20;99.90
19168;DHT22;9716;53.114;18.040;2023-02-21T06:02:06;7.20;99.90
19168;DHT22;9716;53.114;18.040;2023-02-21T06:04:35;7.20;99.90
19168;DHT22;9716;53.114;18.040;2023-02-21T06:07:03;7.10;99.90
19168;DHT22;9716;53.114;18.040;2023-02-21T06:09:33;7.10;99.90
19168;DHT22;9716;53.114;18.040;2023-02-21T06:12:02;7.10;99.90
19168;DHT22;9716;53.114;18.040;2023-02-21T06:14:31;7.10;99.90
19168;DHT22;9716;53.114;18.040;2023-02-21T06:16:59;7.10;99.90
19168;DHT22;9716;53.114;18.040;2023-02-21T06:19:28;7.10;99.90
19168;DHT22;9716;53.114;18.040;2023-02-21T06:21:59;7.10;99.90
19168;DHT22;9716;53.114;18.040;2023-02-21T06:24:28;7.10;99.90
19168;DHT22;9716;53.114;18.040;2023-02-21T06:27:00;7.10;99.90
19168;DHT22;9716;53.114;18.040;2023-02-21T06:29:29;7.10;99.90
19168;DHT22;9716;53.114;18.040;2023-02-21T06:31:57;7.10;99.90
19168;DHT22;9716;53.114;18.040;2023-02-21T06:34:27;7.10;99.90
19168;DHT22;9716;53.114;18.040;2023-02-21T06:36:55;7.10;99.90
19168;DHT22;9716;53.114;18.040;2023-02-21T06:39:24;7.20;99.90
19168;DHT22;9716;53.114;18.040;2023-02-21T06:41:52;7.20;99.90
19168;DHT22;9716;53.114;18.040;2023-02-21T06:44:22;7.20;99.90
19168;DHT22;9716;53.114;18.040;2023-02-21T06:46:50;7.30;99.90
19168;DHT22;9716;53.114;18.040;2023-02-21T06:49:21;7.30;99.90
19168;DHT22;9716;53.114;18.040;2023-02-21T06:51:49;7.30;99.90
19168;DHT22;9716;53.114;18.040;2023-02-21T06:54:18;7.30;99.90
19168;DHT22;9716;53.114;18.040;2023-02-21T06:56:46;7.40;99.90
19168;DHT22;9716;53.114;18.040;2023-02-21T06:59:15;7.40;99.90
19168;DHT22;9716;53.114;18.040;2023-02-21T07:01:44;7.40;99.90
19168;DHT22;9716;53.114;18.040;2023-02-21T07:04:13;7.50;99.90
19168;DHT22;9716;53.114;18.040;2023-02-21T07:06:42;7.50;99.90
19168;DHT22;9716;53.114;18.040;2023-02-21T07:09:10;7.60;99.90
19168;DHT22;9716;53.114;18.040;2023-02-21T07:11:40;7.60;99.90
19168;DHT22;9716;53.114;18.040;2023-02-21T07:14:09;7.60;99.90
19168;DHT22;9716;53.114;18.040;2023-02-21T07:16:37;7.60;99.90
19168;DHT22;9716;53.114;18.040;2023-02-21T07:19:07;7.70;99.90
19168;DHT22;9716;53.114;18.040;2023-02-21T07:21:36;7.70;99.90
19168;DHT22;9716;53.114;18.040;2023-02-21T07:24:08;7.70;99.90
19168;DHT22;9716;53.114;18.040;2023-02-21T07:26:36;7.70;99.90
19168;DHT22;9716;53.114;18.040;2023-02-21T07:29:05;7.70;99.90
19168;DHT22;9716;53.114;18.040;2023-02-21T07:31:34;7.80;99.90
19168;DHT22;9716;53.114;18.040;2023-02-21T07:34:02;7.80;99.90
19168;DHT22;9716;53.114;18.040;2023-02-21T07:36:32;7.80;99.90
19168;DHT22;9716;53.114;18.040;2023-02-21T07:39:00;7.80;99.90
19168;DHT22;9716;53.114;18.040;2023-02-21T07:41:29;7.80;99.90
19168;DHT22;9716;53.114;18.040;2023-02-21T07:43:58;7.90;99.90
19168;DHT22;9716;53.114;18.040;2023-02-21T07:46:29;7.90;99.90
19168;DHT22;9716;53.114;18.040;2023-02-21T07:48:57;7.90;99.90
19168;DHT22;9716;53.114;18.040;2023-02-21T07:51:27;7.90;99.90
19168;DHT22;9716;53.114;18.040;2023-02-21T07:53:57;7.90;99.90
19168;DHT22;9716;53.114;18.040;2023-02-21T07:56:25;8.00;99.90
19168;DHT22;9716;53.114;18.040;2023-02-21T07:58:54;8.00;99.90
19168;DHT22;9716;53.114;18.040;2023-02-21T08:01:24;8.00;99.90
19168;DHT22;9716;53.114;18.040;2023-02-21T08:03:53;8.10;99.90
19168;DHT22;9716;53.114;18.040;2023-02-21T08:06:22;8.10;99.90
19168;DHT22;9716;53.114;18.040;2023-02-21T08:08:50;8.10;99.90
19168;DHT22;9716;53.114;18.040;2023-02-21T08:11:20;8.10;99.90
19168;DHT22;9716;53.114;18.040;2023-02-21T08:13:49;8.20;99.90
19168;DHT22;9716;53.114;18.040;2023-02-21T08:16:17;8.20;99.90
19168;DHT22;9716;53.114;18.040;2023-02-21T08:18:46;8.20;99.90
19168;DHT22;9716;53.114;18.040;2023-02-21T08:21:16;8.20;99.90
19168;DHT22;9716;53.114;18.040;2023-02-21T08:23:47;8.20;99.90
19168;DHT22;9716;53.114;18.040;2023-02-21T08:26:16;8.20;99.90
19168;DHT22;9716;53.114;18.040;2023-02-21T08:28:45;8.20;99.90
19168;DHT22;9716;53.114;18.040;2023-02-21T08:31:14;8.30;99.90
19168;DHT22;9716;53.114;18.040;2023-02-21T08:33:43;8.30;99.90
19168;DHT22;9716;53.114;18.040;2023-02-21T08:36:12;8.30;99.90
19168;DHT22;9716;53.114;18.040;2023-02-21T08:38:40;8.30;99.90
19168;DHT22;9716;53.114;18.040;2023-02-21T08:41:09;8.30;99.90
19168;DHT22;9716;53.114;18.040;2023-02-21T08:43:39;8.30;99.90
19168;DHT22;9716;53.114;18.040;2023-02-21T08:46:08;8.30;99.90
19168;DHT22;9716;53.114;18.040;2023-02-21T08:48:37;8.30;99.90
19168;DHT22;9716;53.114;18.040;2023-02-21T08:51:05;8.30;99.90
19168;DHT22;9716;53.114;18.040;2023-02-21T08:53:34;8.30;99.90
19168;DHT22;9716;53.114;18.040;2023-02-21T08:56:02;8.30;99.90
19168;DHT22;9716;53.114;18.040;2023-02-21T08:58:31;8.30;99.90
19168;DHT22;9716;53.114;18.040;2023-02-21T09:00:59;8.40;99.90
19168;DHT22;9716;53.114;18.040;2023-02-21T09:03:29;8.40;99.90
19168;DHT22;9716;53.114;18.040;2023-02-21T09:05:57;8.50;99.90
19168;DHT22;9716;53.114;18.040;2023-02-21T09:08:26;8.40;99.90
19168;DHT22;9716;53.114;18.040;2023-02-21T09:10:56;8.50;99.90
19168;DHT22;9716;53.114;18.040;2023-02-21T09:13:27;8.50;99.90
19168;DHT22;9716;53.114;18.040;2023-02-21T09:15:56;8.50;99.90
19168;DHT22;9716;53.114;18.040;2023-02-21T09:18:25;8.50;99.90
19168;DHT22;9716;53.114;18.040;2023-02-21T09:20:55;8.50;99.90
19168;DHT22;9716;53.114;18.040;2023-02-21T09:23:24;8.50;99.90
19168;DHT22;9716;53.114;18.040;2023-02-21T09:25:56;8.60;99.90
19168;DHT22;9716;53.114;18.040;2023-02-21T09:28:24;8.60;99.90
19168;DHT22;9716;53.114;18.040;2023-02-21T09:30:55;8.60;99.90
19168;DHT22;9716;53.114;18.040;2023-02-21T09:33:24;8.60;99.90
19168;DHT22;9716;53.114;18.040;2023-02-21T09:35:52;8.70;99.90
19168;DHT22;9716;53.114;18.040;2023-02-21T09:38:22;8.70;99.90
19168;DHT22;9716;53.114;18.040;2023-02-21T09:40:55;8.80;99.90
19168;DHT22;9716;53.114;18.040;2023-02-21T09:43:30;8.80;99.90
19168;DHT22;9716;53.114;18.040;2023-02-21T09:46:03;8.90;99.90
19168;DHT22;9716;53.114;18.040;2023-02-21T09:48:32;8.90;99.90
19168;DHT22;9716;53.114;18.040;2023-02-21T09:51:04;9.00;99.90
19168;DHT22;9716;53.114;18.040;2023-02-21T09:53:37;9.00;99.90
19168;DHT22;9716;53.114;18.040;2023-02-21T09:56:10;9.10;99.90
19168;DHT22;9716;53.114;18.040;2023-02-21T09:58:42;9.10;99.90
19168;DHT22;9716;53.114;18.040;2023-02-21T10:01:21;9.20;99.90
19168;DHT22;9716;53.114;18.040;2023-02-21T10:03:57;9.20;99.90
19168;DHT22;9716;53.114;18.040;2023-02-21T10:06:34;9.20;99.90
19168;DHT22;9716;53.114;18.040;2023-02-21T10:09:17;9.20;99.90
19168;DHT22;9716;53.114;18.040;2023-02-21T10:11:58;9.20;99.90
19168;DHT22;9716;53.114;18.040;2023-02-21T10:14:36;9.10;99.90
19168;DHT22;9716;53.114;18.040;2023-02-21T10:17:12;9.10;99.90
19168;DHT22;9716;53.114;18.040;2023-02-21T10:19:44;9.10;99.90
19168;DHT22;9716;53.114;18.040;2023-02-21T10:22:19;9.20;99.90
19168;DHT22;9716;53.114;18.040;2023-02-21T10:24:50;9.10;99.90
19168;DHT22;9716;53.114;18.040;2023-02-21T10:27:20;9.10;99.90
19168;DHT22;9716;53.114;18.040;2023-02-21T10:29:53;9.10;99.90
19168;DHT22;9716;53.114;18.040;2023-02-21T10:32:23;9.10;99.90
19168;DHT22;9716;53.114;18.040;2023-02-21T10:34:52;9.10;99.90
19168;DHT22;9716;53.114;18.040;2023-02-21T10:37:31;9.20;99.90
19168;DHT22;9716;53.114;18.040;2023-02-21T10:40:04;9.20;99.90
19168;DHT22;9716;53.114;18.040;2023-02-21T10:42:38;9.20;99.90
19168;DHT22;9716;53.114;18.040;2023-02-21T10:45:08;9.30;99.90
19168;DHT22;9716;53.114;18.040;2023-02-21T10:47:47;9.30;99.90
19168;DHT22;9716;53.114;18.040;2023-02-21T10:50:36;9.40;99.90
19168;DHT22;9716;53.114;18.040;2023-02-21T10:53:05;9.50;99.90
19168;DHT22;9716;53.114;18.040;2023-02-21T10:55:36;9.50;99.90
19168;DHT22;9716;53.114;18.040;2023-02-21T10:58:07;9.60;99.90
19168;DHT22;9716;53.114;18.040;2023-02-21T11:00:38;9.70;99.90
19168;DHT22;9716;53.114;18.040;2023-02-21T11:03:20;9.70;99.90
19168;DHT22;9716;53.114;18.040;2023-02-21T11:05:50;9.70;99.90
19168;DHT22;9716;53.114;18.040;2023-02-21T11:08:34;9.70;99.90
19168;DHT22;9716;53.114;18.040;2023-02-21T11:11:05;9.80;99.90
19168;DHT22;9716;53.114;18.040;2023-02-21T11:13:34;9.80;99.90
19168;DHT22;9716;53.114;18.040;2023-02-21T11:16:10;9.90;99.90
19168;DHT22;9716;53.114;18.040;2023-02-21T11:18:38;9.90;99.90
19168;DHT22;9716;53.114;18.040;2023-02-21T11:21:12;9.90;99.90
19168;DHT22;9716;53.114;18.040;2023-02-21T11:23:48;10.00;99.90
19168;DHT22;9716;53.114;18.040;2023-02-21T11:26:27;9.90;99.90
19168;DHT22;9716;53.114;18.040;2023-02-21T11:29:08;9.90;99.90
19168;DHT22;9716;53.114;18.040;2023-02-21T11:31:38;9.90;99.90
19168;DHT22;9716;53.114;18.040;2023-02-21T11:34:09;9.90;99.90
19168;DHT22;9716;53.114;18.040;2023-02-21T11:36:41;9.90;99.90
19168;DHT22;9716;53.114;18.040;2023-02-21T11:39:14;9.90;99.90
19168;DHT22;9716;53.114;18.040;2023-02-21T11:41:48;9.80;99.90
19168;DHT22;9716;53.114;18.040;2023-02-21T11:44:25;9.80;99.90
19168;DHT22;9716;53.114;18.040;2023-02-21T11:47:01;9.80;99.90
19168;DHT22;9716;53.114;18.040;2023-02-21T11:49:36;9.70;99.90
19168;DHT22;9716;53.114;18.040;2023-02-21T11:52:10;9.70;99.90
19168;DHT22;9716;53.114;18.040;2023-02-21T11:54:39;9.70;99.90
19168;DHT22;9716;53.114;18.040;2023-02-21T11:57:16;9.70;99.90
19168;DHT22;9716;53.114;18.040;2023-02-21T11:59:54;9.70;99.90
19168;DHT22;9716;53.114;18.040;2023-02-21T12:05:56;9.80;99.90
19168;DHT22;9716;53.114;18.040;2023-02-21T12:08:42;9.80;99.90
19168;DHT22;9716;53.114;18.040;2023-02-21T12:11:32;9.80;99.90
19168;DHT22;9716;53.114;18.040;2023-02-21T12:14:15;9.90;99.90
19168;DHT22;9716;53.114;18.040;2023-02-21T12:16:54;10.00;99.90
19168;DHT22;9716;53.114;18.040;2023-02-21T12:19:43;10.10;99.90
19168;DHT22;9716;53.114;18.040;2023-02-21T12:22:22;10.20;99.90
19168;DHT22;9716;53.114;18.040;2023-02-21T12:25:05;10.30;99.90
19168;DHT22;9716;53.114;18.040;2023-02-21T12:27:40;10.30;99.90
19168;DHT22;9716;53.114;18.040;2023-02-21T12:30:26;10.40;99.90
19168;DHT22;9716;53.114;18.040;2023-02-21T12:33:07;10.50;99.90
19168;DHT22;9716;53.114;18.040;2023-02-21T12:35:53;10.60;99.90
19168;DHT22;9716;53.114;18.040;2023-02-21T12:38:34;10.60;99.90
19168;DHT22;9716;53.114;18.040;2023-02-21T12:41:21;10.60;99.90
19168;DHT22;9716;53.114;18.040;2023-02-21T12:43:57;10.60;99.90
19168;DHT22;9716;53.114;18.040;2023-02-21T12:46:33;10.60;99.90
19168;DHT22;9716;53.114;18.040;2023-02-21T12:49:05;10.60;99.90
19168;DHT22;9716;53.114;18.040;2023-02-21T12:51:36;10.60;99.90
19168;DHT22;9716;53.114;18.040;2023-02-21T12:54:09;10.60;99.90
19168;DHT22;9716;53.114;18.040;2023-02-21T12:56:46;10.50;99.90
19168;DHT22;9716;53.114;18.040;2023-02-21T12:59:20;10.50;99.90
19168;DHT22;9716;53.114;18.040;2023-02-21T13:01:58;10.50;99.90
19168;DHT22;9716;53.114;18.040;2023-02-21T13:04:34;10.50;99.90
19168;DHT22;9716;53.114;18.040;2023-02-21T13:07:12;10.50;99.90
19168;DHT22;9716;53.114;18.040;2023-02-21T13:09:49;10.50;99.90
19168;DHT22;9716;53.114;18.040;2023-02-21T13:12:23;10.50;99.90
19168;DHT22;9716;53.114;18.040;2023-02-21T13:14:56;10.50;99.90
19168;DHT22;9716;53.114;18.040;2023-02-21T13:17:27;10.40;99.90
19168;DHT22;9716;53.114;18.040;2023-02-21T13:20:00;10.40;99.90
19168;DHT22;9716;53.114;18.040;2023-02-21T13:25:48;10.40;99.90
19168;DHT22;9716;53.114;18.040;2023-02-21T13:28:21;10.30;99.90
19168;DHT22;9716;53.114;18.040;2023-02-21T13:30:51;10.30;99.90
19168;DHT22;9716;53.114;18.040;2023-02-21T13:33:26;10.20;99.90
19168;DHT22;9716;53.114;18.040;2023-02-21T13:35:57;10.20;99.90
19168;DHT22;9716;53.114;18.040;2023-02-21T13:38:28;10.20;99.90
19168;DHT22;9716;53.114;18.040;2023-02-21T13:41:06;10.10;99.90
19168;DHT22;9716;53.114;18.040;2023-02-21T13:43:43;10.20;99.90
19168;DHT22;9716;53.114;18.040;2023-02-21T13:49:47;10.20;99.90
19168;DHT22;9716;53.114;18.040;2023-02-21T13:55:27;10.10;99.90
19168;DHT22;9716;53.114;18.040;2023-02-21T14:01:22;10.20;99.90
19168;DHT22;9716;53.114;18.040;2023-02-21T14:03:55;10.10;99.90
19168;DHT22;9716;53.114;18.040;2023-02-21T14:06:32;10.10;99.90
19168;DHT22;9716;53.114;18.040;2023-02-21T14:09:12;10.10;99.90
19168;DHT22;9716;53.114;18.040;2023-02-21T14:11:45;10.00;99.90
19168;DHT22;9716;53.114;18.040;2023-02-21T14:14:22;10.00;99.90
19168;DHT22;9716;53.114;18.040;2023-02-21T14:16:57;10.00;99.90
19168;DHT22;9716;53.114;18.040;2023-02-21T14:19:32;10.00;99.90
19168;DHT22;9716;53.114;18.040;2023-02-21T14:22:12;9.90;99.90
19168;DHT22;9716;53.114;18.040;2023-02-21T14:24:43;9.90;99.90
19168;DHT22;9716;53.114;18.040;2023-02-21T14:27:31;9.90;99.90
19168;DHT22;9716;53.114;18.040;2023-02-21T14:30:25;9.80;99.90
19168;DHT22;9716;53.114;18.040;2023-02-21T14:33:08;9.80;99.90
19168;DHT22;9716;53.114;18.040;2023-02-21T14:35:45;9.80;99.90
19168;DHT22;9716;53.114;18.040;2023-02-21T14:38:21;9.80;99.90
19168;DHT22;9716;53.114;18.040;2023-02-21T14:41:01;9.80;99.90
19168;DHT22;9716;53.114;18.040;2023-02-21T14:43:55;9.80;99.90
19168;DHT22;9716;53.114;18.040;2023-02-21T14:46:50;9.80;99.90
19168;DHT22;9716;53.114;18.040;2023-02-21T14:49:47;9.70;99.90
19168;DHT22;9716;53.114;18.040;2023-02-21T14:52:41;9.70;99.90
19168;DHT22;9716;53.114;18.040;2023-02-21T14:55:38;9.70;99.90
19168;DHT22;9716;53.114;18.040;2023-02-21T14:58:41;9.70;99.90
19168;DHT22;9716;53.114;18.040;2023-02-21T15:01:19;9.70;99.90
19168;DHT22;9716;53.114;18.040;2023-02-21T15:03:58;9.70;99.90
19168;DHT22;9716;53.114;18.040;2023-02-21T15:06:28;9.60;99.90
19168;DHT22;9716;53.114;18.040;2023-02-21T15:09:11;9.60;99.90
19168;DHT22;9716;53.114;18.040;2023-02-21T15:11:42;9.60;99.90
19168;DHT22;9716;53.114;18.040;2023-02-21T15:14:14;9.50;99.90
19168;DHT22;9716;53.114;18.040;2023-02-21T15:16:53;9.50;99.90
19168;DHT22;9716;53.114;18.040;2023-02-21T15:19:25;9.50;99.90
19168;DHT22;9716;53.114;18.040;2023-02-21T15:22:16;9.40;99.90
19168;DHT22;9716;53.114;18.040;2023-02-21T15:28:04;9.30;99.90
19168;DHT22;9716;53.114;18.040;2023-02-21T15:30:38;9.30;99.90
19168;DHT22;9716;53.114;18.040;2023-02-21T15:33:14;9.30;99.90
19168;DHT22;9716;53.114;18.040;2023-02-21T15:35:47;9.20;99.90
19168;DHT22;9716;53.114;18.040;2023-02-21T15:38:21;9.20;99.90
19168;DHT22;9716;53.114;18.040;2023-02-21T15:40:53;9.20;99.90
19168;DHT22;9716;53.114;18.040;2023-02-21T15:43:36;9.10;99.90
19168;DHT22;9716;53.114;18.040;2023-02-21T15:46:07;9.10;99.90
19168;DHT22;9716;53.114;18.040;2023-02-21T15:48:39;9.00;99.90
19168;DHT22;9716;53.114;18.040;2023-02-21T15:51:09;8.90;99.90
19168;DHT22;9716;53.114;18.040;2023-02-21T15:53:39;8.90;99.90
19168;DHT22;9716;53.114;18.040;2023-02-21T15:56:16;8.80;99.90
19168;DHT22;9716;53.114;18.040;2023-02-21T15:59:08;8.70;99.90
19168;DHT22;9716;53.114;18.040;2023-02-21T16:01:37;8.70;99.90
19168;DHT22;9716;53.114;18.040;2023-02-21T16:04:21;8.60;99.90
19168;DHT22;9716;53.114;18.040;2023-02-21T16:06:52;8.50;99.90
19168;DHT22;9716;53.114;18.040;2023-02-21T16:09:24;8.40;99.90
19168;DHT22;9716;53.114;18.040;2023-02-21T16:11:58;8.40;99.90
19168;DHT22;9716;53.114;18.040;2023-02-21T16:14:38;8.30;99.90
19168;DHT22;9716;53.114;18.040;2023-02-21T16:17:19;8.20;99.90
19168;DHT22;9716;53.114;18.040;2023-02-21T16:19:50;8.20;99.90
19168;DHT22;9716;53.114;18.040;2023-02-21T16:22:28;8.10;99.90
19168;DHT22;9716;53.114;18.040;2023-02-21T16:25:10;8.00;99.90
19168;DHT22;9716;53.114;18.040;2023-02-21T16:27:41;7.90;99.90
19168;DHT22;9716;53.114;18.040;2023-02-21T16:30:14;7.80;99.90
19168;DHT22;9716;53.114;18.040;2023-02-21T16:32:45;7.80;99.90
19168;DHT22;9716;53.114;18.040;2023-02-21T16:35:16;7.80;99.90
19168;DHT22;9716;53.114;18.040;2023-02-21T16:37:48;7.70;99.90
19168;DHT22;9716;53.114;18.040;2023-02-21T16:40:19;7.70;99.90
19168;DHT22;9716;53.114;18.040;2023-02-21T16:42:52;7.60;99.90
19168;DHT22;9716;53.114;18.040;2023-02-21T16:45:23;7.60;99.90
19168;DHT22;9716;53.114;18.040;2023-02-21T16:47:55;7.50;99.90
19168;DHT22;9716;53.114;18.040;2023-02-21T16:50:27;7.50;99.90
19168;DHT22;9716;53.114;18.040;2023-02-21T16:52:57;7.40;99.90
19168;DHT22;9716;53.114;18.040;2023-02-21T16:55:26;7.40;99.90
19168;DHT22;9716;53.114;18.040;2023-02-21T16:57:59;7.40;99.90